sensor_id;sensor_type;location;lat;lon;timestamp;P1;durP1;ratioP1;P2;durP2;ratioP2
27003;SDS011;14546;47.590;19.022;2022-08-14T00:00:18;7.75;;;6.00;;
27003;SDS011;14546;47.590;19.022;2022-08-14T00:02:45;8.15;;;6.55;;
27003;SDS011;14546;47.590;19.022;2022-08-14T00:05:12;6.93;;;6.15;;
27003;SDS011;14546;47.590;19.022;2022-08-14T00:07:39;12.32;;;6.43;;
27003;SDS011;14546;47.590;19.022;2022-08-14T00:10:05;7.75;;;6.57;;
27003;SDS011;14546;47.590;19.022;2022-08-14T00:12:33;6.78;;;6.10;;
27003;SDS011;14546;47.590;19.022;2022-08-14T00:14:59;6.95;;;6.05;;
27003;SDS011;14546;47.590;19.022;2022-08-14T00:17:25;7.03;;;6.32;;
27003;SDS011;14546;47.590;19.022;2022-08-14T00:19:51;7.85;;;6.07;;
27003;SDS011;14546;47.590;19.022;2022-08-14T00:22:18;6.20;;;5.60;;
27003;SDS011;14546;47.590;19.022;2022-08-14T00:24:44;8.70;;;5.95;;
27003;SDS011;14546;47.590;19.022;2022-08-14T00:27:10;9.40;;;6.45;;
27003;SDS011;14546;47.590;19.022;2022-08-14T00:29:36;7.68;;;6.88;;
27003;SDS011;14546;47.590;19.022;2022-08-14T00:32:02;7.03;;;6.07;;
27003;SDS011;14546;47.590;19.022;2022-08-14T00:34:28;7.38;;;6.22;;
27003;SDS011;14546;47.590;19.022;2022-08-14T00:36:54;8.57;;;6.43;;
27003;SDS011;14546;47.590;19.022;2022-08-14T00:39:20;7.15;;;6.45;;
27003;SDS011;14546;47.590;19.022;2022-08-14T00:41:47;10.18;;;6.85;;
27003;SDS011;14546;47.590;19.022;2022-08-14T00:44:14;9.70;;;7.40;;
27003;SDS011;14546;47.590;19.022;2022-08-14T00:46:41;10.95;;;7.03;;
27003;SDS011;14546;47.590;19.022;2022-08-14T00:49:07;9.43;;;7.05;;
27003;SDS011;14546;47.590;19.022;2022-08-14T00:51:33;7.85;;;6.53;;
27003;SDS011;14546;47.590;19.022;2022-08-14T00:54:00;11.40;;;7.00;;
27003;SDS011;14546;47.590;19.022;2022-08-14T00:56:27;9.88;;;6.53;;
27003;SDS011;14546;47.590;19.022;2022-08-14T00:58:53;8.80;;;6.90;;
27003;SDS011;14546;47.590;19.022;2022-08-14T01:01:20;8.13;;;6.75;;
27003;SDS011;14546;47.590;19.022;2022-08-14T01:03:47;10.93;;;7.88;;
27003;SDS011;14546;47.590;19.022;2022-08-14T01:06:13;7.40;;;6.70;;
27003;SDS011;14546;47.590;19.022;2022-08-14T01:08:42;8.00;;;7.18;;
27003;SDS011;14546;47.590;19.022;2022-08-14T01:11:09;11.80;;;7.00;;
27003;SDS011;14546;47.590;19.022;2022-08-14T01:13:40;10.75;;;7.30;;
27003;SDS011;14546;47.590;19.022;2022-08-14T01:16:08;11.18;;;7.57;;
27003;SDS011;14546;47.590;19.022;2022-08-14T01:18:34;8.80;;;7.30;;
27003;SDS011;14546;47.590;19.022;2022-08-14T01:21:21;9.77;;;7.43;;
27003;SDS011;14546;47.590;19.022;2022-08-14T01:23:48;8.43;;;7.30;;
27003;SDS011;14546;47.590;19.022;2022-08-14T01:26:23;9.90;;;7.35;;
27003;SDS011;14546;47.590;19.022;2022-08-14T01:28:50;8.75;;;7.65;;
27003;SDS011;14546;47.590;19.022;2022-08-14T01:31:20;11.48;;;7.93;;
27003;SDS011;14546;47.590;19.022;2022-08-14T01:33:47;9.77;;;7.93;;
27003;SDS011;14546;47.590;19.022;2022-08-14T01:36:14;10.80;;;8.02;;
27003;SDS011;14546;47.590;19.022;2022-08-14T01:38:42;11.55;;;8.10;;
27003;SDS011;14546;47.590;19.022;2022-08-14T01:41:11;10.75;;;7.65;;
27003;SDS011;14546;47.590;19.022;2022-08-14T01:43:57;8.88;;;7.97;;
27003;SDS011;14546;47.590;19.022;2022-08-14T01:46:32;10.77;;;8.13;;
27003;SDS011;14546;47.590;19.022;2022-08-14T01:48:58;10.32;;;8.02;;
27003;SDS011;14546;47.590;19.022;2022-08-14T01:51:26;8.88;;;7.85;;
27003;SDS011;14546;47.590;19.022;2022-08-14T01:54:00;10.05;;;7.70;;
27003;SDS011;14546;47.590;19.022;2022-08-14T01:56:27;10.65;;;7.88;;
27003;SDS011;14546;47.590;19.022;2022-08-14T01:59:10;8.85;;;7.90;;
27003;SDS011;14546;47.590;19.022;2022-08-14T02:01:46;11.52;;;8.38;;
27003;SDS011;14546;47.590;19.022;2022-08-14T02:04:13;11.32;;;8.30;;
27003;SDS011;14546;47.590;19.022;2022-08-14T02:06:39;10.25;;;8.25;;
27003;SDS011;14546;47.590;19.022;2022-08-14T02:09:06;11.07;;;8.10;;
27003;SDS011;14546;47.590;19.022;2022-08-14T02:11:33;9.75;;;8.45;;
27003;SDS011;14546;47.590;19.022;2022-08-14T02:14:03;9.45;;;8.40;;
27003;SDS011;14546;47.590;19.022;2022-08-14T02:16:31;9.88;;;8.05;;
27003;SDS011;14546;47.590;19.022;2022-08-14T02:19:03;9.45;;;8.55;;
27003;SDS011;14546;47.590;19.022;2022-08-14T02:21:31;11.85;;;8.48;;
27003;SDS011;14546;47.590;19.022;2022-08-14T02:23:58;9.27;;;8.38;;
27003;SDS011;14546;47.590;19.022;2022-08-14T02:26:26;8.93;;;7.97;;
27003;SDS011;14546;47.590;19.022;2022-08-14T02:28:54;9.10;;;7.68;;
27003;SDS011;14546;47.590;19.022;2022-08-14T02:31:24;9.60;;;8.57;;
27003;SDS011;14546;47.590;19.022;2022-08-14T02:33:54;9.68;;;8.27;;
27003;SDS011;14546;47.590;19.022;2022-08-14T02:36:20;10.80;;;7.90;;
27003;SDS011;14546;47.590;19.022;2022-08-14T02:38:46;9.88;;;8.43;;
27003;SDS011;14546;47.590;19.022;2022-08-14T02:41:14;9.35;;;8.35;;
27003;SDS011;14546;47.590;19.022;2022-08-14T02:43:40;8.75;;;7.85;;
27003;SDS011;14546;47.590;19.022;2022-08-14T02:46:07;9.82;;;8.20;;
27003;SDS011;14546;47.590;19.022;2022-08-14T02:48:38;9.75;;;8.38;;
27003;SDS011;14546;47.590;19.022;2022-08-14T02:51:07;10.13;;;7.70;;
27003;SDS011;14546;47.590;19.022;2022-08-14T02:53:34;9.18;;;7.78;;
27003;SDS011;14546;47.590;19.022;2022-08-14T02:56:02;8.60;;;7.72;;
27003;SDS011;14546;47.590;19.022;2022-08-14T02:58:28;10.20;;;8.15;;
27003;SDS011;14546;47.590;19.022;2022-08-14T03:00:54;10.48;;;8.15;;
27003;SDS011;14546;47.590;19.022;2022-08-14T03:03:21;12.65;;;8.32;;
27003;SDS011;14546;47.590;19.022;2022-08-14T03:05:49;9.20;;;8.15;;
27003;SDS011;14546;47.590;19.022;2022-08-14T03:08:15;12.73;;;8.40;;
27003;SDS011;14546;47.590;19.022;2022-08-14T03:10:42;9.75;;;8.05;;
27003;SDS011;14546;47.590;19.022;2022-08-14T03:13:08;17.10;;;9.40;;
27003;SDS011;14546;47.590;19.022;2022-08-14T03:15:34;22.00;;;10.15;;
27003;SDS011;14546;47.590;19.022;2022-08-14T03:18:14;24.25;;;10.35;;
27003;SDS011;14546;47.590;19.022;2022-08-14T03:20:39;24.52;;;10.77;;
27003;SDS011;14546;47.590;19.022;2022-08-14T03:23:05;14.52;;;8.48;;
27003;SDS011;14546;47.590;19.022;2022-08-14T03:25:32;10.48;;;8.88;;
27003;SDS011;14546;47.590;19.022;2022-08-14T03:28:01;10.65;;;8.25;;
27003;SDS011;14546;47.590;19.022;2022-08-14T03:30:30;8.65;;;7.75;;
27003;SDS011;14546;47.590;19.022;2022-08-14T03:32:56;9.45;;;8.05;;
27003;SDS011;14546;47.590;19.022;2022-08-14T03:35:22;11.10;;;8.73;;
27003;SDS011;14546;47.590;19.022;2022-08-14T03:37:49;15.00;;;8.77;;
27003;SDS011;14546;47.590;19.022;2022-08-14T03:40:37;9.38;;;8.48;;
27003;SDS011;14546;47.590;19.022;2022-08-14T03:43:05;13.32;;;8.63;;
27003;SDS011;14546;47.590;19.022;2022-08-14T03:45:32;11.13;;;8.43;;
27003;SDS011;14546;47.590;19.022;2022-08-14T03:48:00;10.98;;;8.35;;
27003;SDS011;14546;47.590;19.022;2022-08-14T03:50:34;9.45;;;8.52;;
27003;SDS011;14546;47.590;19.022;2022-08-14T03:53:00;9.30;;;8.32;;
27003;SDS011;14546;47.590;19.022;2022-08-14T03:55:27;10.75;;;8.10;;
27003;SDS011;14546;47.590;19.022;2022-08-14T03:57:53;9.57;;;8.40;;
27003;SDS011;14546;47.590;19.022;2022-08-14T04:00:19;8.88;;;8.02;;
27003;SDS011;14546;47.590;19.022;2022-08-14T04:02:45;10.77;;;8.52;;
27003;SDS011;14546;47.590;19.022;2022-08-14T04:05:12;12.45;;;8.05;;
27003;SDS011;14546;47.590;19.022;2022-08-14T04:07:37;10.85;;;8.52;;
27003;SDS011;14546;47.590;19.022;2022-08-14T04:10:04;8.35;;;7.45;;
27003;SDS011;14546;47.590;19.022;2022-08-14T04:12:31;10.52;;;9.15;;
27003;SDS011;14546;47.590;19.022;2022-08-14T04:14:58;9.55;;;7.88;;
27003;SDS011;14546;47.590;19.022;2022-08-14T04:17:23;10.18;;;8.57;;
27003;SDS011;14546;47.590;19.022;2022-08-14T04:20:10;9.30;;;7.93;;
27003;SDS011;14546;47.590;19.022;2022-08-14T04:22:36;15.75;;;8.85;;
27003;SDS011;14546;47.590;19.022;2022-08-14T04:25:03;10.35;;;8.30;;
27003;SDS011;14546;47.590;19.022;2022-08-14T04:27:29;9.38;;;7.97;;
27003;SDS011;14546;47.590;19.022;2022-08-14T04:29:54;12.77;;;8.98;;
27003;SDS011;14546;47.590;19.022;2022-08-14T04:32:21;9.82;;;8.23;;
27003;SDS011;14546;47.590;19.022;2022-08-14T04:34:50;11.48;;;8.52;;
27003;SDS011;14546;47.590;19.022;2022-08-14T04:37:18;11.25;;;8.30;;
27003;SDS011;14546;47.590;19.022;2022-08-14T04:40:05;11.55;;;8.30;;
27003;SDS011;14546;47.590;19.022;2022-08-14T04:42:49;8.75;;;7.85;;
27003;SDS011;14546;47.590;19.022;2022-08-14T04:45:34;10.48;;;7.90;;
27003;SDS011;14546;47.590;19.022;2022-08-14T04:48:08;11.18;;;8.13;;
27003;SDS011;14546;47.590;19.022;2022-08-14T04:50:49;13.00;;;7.82;;
27003;SDS011;14546;47.590;19.022;2022-08-14T04:53:16;11.68;;;8.93;;
27003;SDS011;14546;47.590;19.022;2022-08-14T04:55:44;13.35;;;8.55;;
27003;SDS011;14546;47.590;19.022;2022-08-14T04:58:14;11.65;;;8.68;;
27003;SDS011;14546;47.590;19.022;2022-08-14T05:00:42;12.73;;;8.07;;
27003;SDS011;14546;47.590;19.022;2022-08-14T05:03:08;9.52;;;7.68;;
27003;SDS011;14546;47.590;19.022;2022-08-14T05:05:34;9.50;;;8.13;;
27003;SDS011;14546;47.590;19.022;2022-08-14T05:08:07;10.70;;;8.15;;
27003;SDS011;14546;47.590;19.022;2022-08-14T05:10:36;8.70;;;7.82;;
27003;SDS011;14546;47.590;19.022;2022-08-14T05:13:04;9.65;;;7.85;;
27003;SDS011;14546;47.590;19.022;2022-08-14T05:15:33;12.73;;;7.78;;
27003;SDS011;14546;47.590;19.022;2022-08-14T05:18:02;9.75;;;7.40;;
27003;SDS011;14546;47.590;19.022;2022-08-14T05:20:33;8.63;;;7.18;;
27003;SDS011;14546;47.590;19.022;2022-08-14T05:22:59;8.07;;;6.97;;
27003;SDS011;14546;47.590;19.022;2022-08-14T05:25:26;8.73;;;6.70;;
27003;SDS011;14546;47.590;19.022;2022-08-14T05:27:52;10.90;;;7.93;;
27003;SDS011;14546;47.590;19.022;2022-08-14T05:30:17;7.90;;;7.10;;
27003;SDS011;14546;47.590;19.022;2022-08-14T05:32:43;8.73;;;6.97;;
27003;SDS011;14546;47.590;19.022;2022-08-14T05:35:09;10.10;;;8.13;;
27003;SDS011;14546;47.590;19.022;2022-08-14T05:37:35;9.30;;;6.70;;
27003;SDS011;14546;47.590;19.022;2022-08-14T05:40:03;7.38;;;6.60;;
27003;SDS011;14546;47.590;19.022;2022-08-14T05:42:29;7.90;;;6.93;;
27003;SDS011;14546;47.590;19.022;2022-08-14T05:44:55;9.77;;;6.45;;
27003;SDS011;14546;47.590;19.022;2022-08-14T05:47:20;13.38;;;6.65;;
27003;SDS011;14546;47.590;19.022;2022-08-14T05:49:46;11.68;;;6.60;;
27003;SDS011;14546;47.590;19.022;2022-08-14T05:52:14;9.48;;;7.05;;
27003;SDS011;14546;47.590;19.022;2022-08-14T05:54:41;7.95;;;6.72;;
27003;SDS011;14546;47.590;19.022;2022-08-14T05:57:06;8.52;;;7.60;;
27003;SDS011;14546;47.590;19.022;2022-08-14T05:59:32;10.32;;;6.72;;
27003;SDS011;14546;47.590;19.022;2022-08-14T06:01:58;9.38;;;7.22;;
27003;SDS011;14546;47.590;19.022;2022-08-14T06:04:24;15.38;;;7.20;;
27003;SDS011;14546;47.590;19.022;2022-08-14T06:06:50;7.35;;;6.60;;
27003;SDS011;14546;47.590;19.022;2022-08-14T06:09:15;11.80;;;6.72;;
27003;SDS011;14546;47.590;19.022;2022-08-14T06:11:41;10.45;;;6.88;;
27003;SDS011;14546;47.590;19.022;2022-08-14T06:14:06;8.90;;;6.50;;
27003;SDS011;14546;47.590;19.022;2022-08-14T06:16:33;15.77;;;6.40;;
27003;SDS011;14546;47.590;19.022;2022-08-14T06:18:59;6.65;;;5.97;;
27003;SDS011;14546;47.590;19.022;2022-08-14T06:21:25;8.75;;;6.35;;
27003;SDS011;14546;47.590;19.022;2022-08-14T06:23:50;9.70;;;6.13;;
27003;SDS011;14546;47.590;19.022;2022-08-14T06:26:16;7.00;;;6.05;;
27003;SDS011;14546;47.590;19.022;2022-08-14T06:28:42;8.77;;;6.03;;
27003;SDS011;14546;47.590;19.022;2022-08-14T06:31:08;8.27;;;6.28;;
27003;SDS011;14546;47.590;19.022;2022-08-14T06:33:35;12.80;;;6.32;;
27003;SDS011;14546;47.590;19.022;2022-08-14T06:36:01;9.70;;;6.00;;
27003;SDS011;14546;47.590;19.022;2022-08-14T06:38:27;6.75;;;5.85;;
27003;SDS011;14546;47.590;19.022;2022-08-14T06:40:53;7.00;;;6.30;;
27003;SDS011;14546;47.590;19.022;2022-08-14T06:43:19;9.35;;;6.10;;
27003;SDS011;14546;47.590;19.022;2022-08-14T06:45:46;9.60;;;6.45;;
27003;SDS011;14546;47.590;19.022;2022-08-14T06:50:47;10.05;;;6.20;;
27003;SDS011;14546;47.590;19.022;2022-08-14T06:53:14;8.18;;;6.53;;
27003;SDS011;14546;47.590;19.022;2022-08-14T06:55:40;7.15;;;5.50;;
27003;SDS011;14546;47.590;19.022;2022-08-14T06:58:09;6.78;;;5.65;;
27003;SDS011;14546;47.590;19.022;2022-08-14T07:00:37;8.07;;;5.65;;
27003;SDS011;14546;47.590;19.022;2022-08-14T07:03:03;6.57;;;5.95;;
27003;SDS011;14546;47.590;19.022;2022-08-14T07:05:47;8.20;;;5.70;;
27003;SDS011;14546;47.590;19.022;2022-08-14T07:10:43;18.90;;;7.05;;
27003;SDS011;14546;47.590;19.022;2022-08-14T07:13:10;7.72;;;6.00;;
27003;SDS011;14546;47.590;19.022;2022-08-14T07:15:37;6.78;;;5.78;;
27003;SDS011;14546;47.590;19.022;2022-08-14T07:18:03;8.90;;;5.32;;
27003;SDS011;14546;47.590;19.022;2022-08-14T07:20:31;6.55;;;5.82;;
27003;SDS011;14546;47.590;19.022;2022-08-14T07:22:58;6.78;;;5.53;;
27003;SDS011;14546;47.590;19.022;2022-08-14T07:25:27;6.75;;;5.95;;
27003;SDS011;14546;47.590;19.022;2022-08-14T07:27:53;7.22;;;5.65;;
27003;SDS011;14546;47.590;19.022;2022-08-14T07:30:19;7.97;;;5.93;;
27003;SDS011;14546;47.590;19.022;2022-08-14T07:32:46;9.32;;;5.82;;
27003;SDS011;14546;47.590;19.022;2022-08-14T07:35:12;9.38;;;5.78;;
27003;SDS011;14546;47.590;19.022;2022-08-14T07:37:39;6.85;;;5.70;;
27003;SDS011;14546;47.590;19.022;2022-08-14T07:40:06;8.25;;;5.70;;
27003;SDS011;14546;47.590;19.022;2022-08-14T07:42:32;7.40;;;5.95;;
27003;SDS011;14546;47.590;19.022;2022-08-14T07:44:58;8.52;;;5.45;;
27003;SDS011;14546;47.590;19.022;2022-08-14T07:47:26;7.65;;;5.72;;
27003;SDS011;14546;47.590;19.022;2022-08-14T07:50:05;9.88;;;6.20;;
27003;SDS011;14546;47.590;19.022;2022-08-14T07:52:33;7.70;;;6.10;;
27003;SDS011;14546;47.590;19.022;2022-08-14T07:55:00;8.85;;;5.72;;
27003;SDS011;14546;47.590;19.022;2022-08-14T07:57:27;6.22;;;5.60;;
27003;SDS011;14546;47.590;19.022;2022-08-14T07:59:53;6.22;;;5.38;;
27003;SDS011;14546;47.590;19.022;2022-08-14T08:02:20;7.28;;;5.82;;
27003;SDS011;14546;47.590;19.022;2022-08-14T08:04:50;6.82;;;5.90;;
27003;SDS011;14546;47.590;19.022;2022-08-14T08:07:18;8.18;;;5.72;;
27003;SDS011;14546;47.590;19.022;2022-08-14T08:09:49;7.72;;;6.03;;
27003;SDS011;14546;47.590;19.022;2022-08-14T08:12:19;6.07;;;5.40;;
27003;SDS011;14546;47.590;19.022;2022-08-14T08:14:46;6.95;;;6.15;;
27003;SDS011;14546;47.590;19.022;2022-08-14T08:17:15;6.05;;;5.30;;
27003;SDS011;14546;47.590;19.022;2022-08-14T08:19:42;8.38;;;6.65;;
27003;SDS011;14546;47.590;19.022;2022-08-14T08:22:08;6.95;;;5.63;;
27003;SDS011;14546;47.590;19.022;2022-08-14T08:24:34;9.07;;;5.78;;
27003;SDS011;14546;47.590;19.022;2022-08-14T08:27:00;8.65;;;6.38;;
27003;SDS011;14546;47.590;19.022;2022-08-14T08:29:26;6.00;;;5.43;;
27003;SDS011;14546;47.590;19.022;2022-08-14T08:31:53;7.10;;;5.85;;
27003;SDS011;14546;47.590;19.022;2022-08-14T08:34:21;6.35;;;5.72;;
27003;SDS011;14546;47.590;19.022;2022-08-14T08:36:48;9.50;;;5.60;;
27003;SDS011;14546;47.590;19.022;2022-08-14T08:39:15;8.00;;;5.75;;
27003;SDS011;14546;47.590;19.022;2022-08-14T08:41:46;8.90;;;5.93;;
27003;SDS011;14546;47.590;19.022;2022-08-14T08:44:13;7.57;;;5.90;;
27003;SDS011;14546;47.590;19.022;2022-08-14T08:46:39;6.55;;;5.95;;
27003;SDS011;14546;47.590;19.022;2022-08-14T08:49:06;8.30;;;6.35;;
27003;SDS011;14546;47.590;19.022;2022-08-14T08:51:35;9.85;;;6.03;;
27003;SDS011;14546;47.590;19.022;2022-08-14T08:56:43;6.35;;;5.70;;
27003;SDS011;14546;47.590;19.022;2022-08-14T08:59:20;6.95;;;5.47;;
27003;SDS011;14546;47.590;19.022;2022-08-14T09:01:53;10.30;;;5.82;;
27003;SDS011;14546;47.590;19.022;2022-08-14T09:04:23;9.13;;;5.95;;
27003;SDS011;14546;47.590;19.022;2022-08-14T09:06:49;8.93;;;6.75;;
27003;SDS011;14546;47.590;19.022;2022-08-14T09:09:16;8.27;;;5.82;;
27003;SDS011;14546;47.590;19.022;2022-08-14T09:11:42;13.65;;;5.53;;
27003;SDS011;14546;47.590;19.022;2022-08-14T09:14:08;7.55;;;6.07;;
27003;SDS011;14546;47.590;19.022;2022-08-14T09:16:34;6.40;;;5.22;;
27003;SDS011;14546;47.590;19.022;2022-08-14T09:19:00;6.95;;;5.53;;
27003;SDS011;14546;47.590;19.022;2022-08-14T09:21:27;9.68;;;5.10;;
27003;SDS011;14546;47.590;19.022;2022-08-14T09:23:53;7.50;;;5.30;;
27003;SDS011;14546;47.590;19.022;2022-08-14T09:26:19;5.53;;;4.82;;
27003;SDS011;14546;47.590;19.022;2022-08-14T09:28:45;9.40;;;4.82;;
27003;SDS011;14546;47.590;19.022;2022-08-14T09:31:12;5.13;;;4.60;;
27003;SDS011;14546;47.590;19.022;2022-08-14T09:44:18;6.18;;;5.03;;
27003;SDS011;14546;47.590;19.022;2022-08-14T09:46:52;7.38;;;5.07;;
27003;SDS011;14546;47.590;19.022;2022-08-14T09:49:28;7.00;;;4.70;;
27003;SDS011;14546;47.590;19.022;2022-08-14T09:52:16;9.57;;;5.07;;
27003;SDS011;14546;47.590;19.022;2022-08-14T09:54:43;8.15;;;5.20;;
27003;SDS011;14546;47.590;19.022;2022-08-14T09:57:10;11.27;;;5.07;;
27003;SDS011;14546;47.590;19.022;2022-08-14T09:59:46;6.68;;;5.40;;
27003;SDS011;14546;47.590;19.022;2022-08-14T10:02:24;5.72;;;4.85;;
27003;SDS011;14546;47.590;19.022;2022-08-14T10:05:10;6.43;;;4.40;;
27003;SDS011;14546;47.590;19.022;2022-08-14T10:07:44;7.18;;;3.95;;
27003;SDS011;14546;47.590;19.022;2022-08-14T10:10:26;9.43;;;4.32;;
27003;SDS011;14546;47.590;19.022;2022-08-14T10:12:52;4.30;;;3.90;;
27003;SDS011;14546;47.590;19.022;2022-08-14T10:15:20;6.22;;;4.22;;
27003;SDS011;14546;47.590;19.022;2022-08-14T10:17:47;4.82;;;4.10;;
27003;SDS011;14546;47.590;19.022;2022-08-14T10:20:16;6.00;;;4.15;;
27003;SDS011;14546;47.590;19.022;2022-08-14T10:22:46;5.68;;;4.03;;
27003;SDS011;14546;47.590;19.022;2022-08-14T10:25:14;6.72;;;4.38;;
27003;SDS011;14546;47.590;19.022;2022-08-14T10:27:42;5.15;;;4.53;;
27003;SDS011;14546;47.590;19.022;2022-08-14T10:32:42;4.95;;;4.10;;
27003;SDS011;14546;47.590;19.022;2022-08-14T10:35:09;5.57;;;4.40;;
27003;SDS011;14546;47.590;19.022;2022-08-14T10:37:36;6.97;;;4.57;;
27003;SDS011;14546;47.590;19.022;2022-08-14T10:40:03;4.35;;;3.95;;
27003;SDS011;14546;47.590;19.022;2022-08-14T10:42:35;4.47;;;4.07;;
27003;SDS011;14546;47.590;19.022;2022-08-14T10:45:02;7.57;;;4.63;;
27003;SDS011;14546;47.590;19.022;2022-08-14T10:47:35;6.55;;;5.03;;
27003;SDS011;14546;47.590;19.022;2022-08-14T10:50:01;7.13;;;4.65;;
27003;SDS011;14546;47.590;19.022;2022-08-14T10:52:28;4.53;;;4.03;;
27003;SDS011;14546;47.590;19.022;2022-08-14T10:55:07;8.20;;;4.85;;
27003;SDS011;14546;47.590;19.022;2022-08-14T10:57:45;9.13;;;4.72;;
27003;SDS011;14546;47.590;19.022;2022-08-14T11:00:15;9.32;;;4.78;;
27003;SDS011;14546;47.590;19.022;2022-08-14T11:02:41;7.57;;;5.32;;
27003;SDS011;14546;47.590;19.022;2022-08-14T11:05:17;6.15;;;4.80;;
27003;SDS011;14546;47.590;19.022;2022-08-14T11:10:18;7.50;;;5.18;;
27003;SDS011;14546;47.590;19.022;2022-08-14T11:12:49;7.30;;;4.82;;
27003;SDS011;14546;47.590;19.022;2022-08-14T11:15:17;6.95;;;4.75;;
27003;SDS011;14546;47.590;19.022;2022-08-14T11:17:44;7.75;;;4.85;;
27003;SDS011;14546;47.590;19.022;2022-08-14T11:20:11;6.55;;;4.70;;
27003;SDS011;14546;47.590;19.022;2022-08-14T11:22:38;9.30;;;4.57;;
27003;SDS011;14546;47.590;19.022;2022-08-14T11:25:05;7.55;;;4.97;;
27003;SDS011;14546;47.590;19.022;2022-08-14T11:27:32;10.88;;;4.97;;
27003;SDS011;14546;47.590;19.022;2022-08-14T11:30:04;6.18;;;4.47;;
27003;SDS011;14546;47.590;19.022;2022-08-14T11:32:30;4.82;;;3.97;;
27003;SDS011;14546;47.590;19.022;2022-08-14T11:34:57;5.90;;;4.32;;
27003;SDS011;14546;47.590;19.022;2022-08-14T11:37:23;11.70;;;4.95;;
27003;SDS011;14546;47.590;19.022;2022-08-14T11:39:49;6.13;;;4.68;;
27003;SDS011;14546;47.590;19.022;2022-08-14T11:42:19;6.60;;;4.45;;
27003;SDS011;14546;47.590;19.022;2022-08-14T11:44:45;5.53;;;4.22;;
27003;SDS011;14546;47.590;19.022;2022-08-14T11:47:13;6.72;;;4.57;;
27003;SDS011;14546;47.590;19.022;2022-08-14T11:49:43;7.45;;;4.80;;
27003;SDS011;14546;47.590;19.022;2022-08-14T11:52:10;8.57;;;4.70;;
27003;SDS011;14546;47.590;19.022;2022-08-14T11:54:36;4.93;;;4.47;;
27003;SDS011;14546;47.590;19.022;2022-08-14T11:57:02;6.15;;;4.70;;
27003;SDS011;14546;47.590;19.022;2022-08-14T11:59:30;5.07;;;4.57;;
27003;SDS011;14546;47.590;19.022;2022-08-14T12:02:07;5.20;;;4.30;;
27003;SDS011;14546;47.590;19.022;2022-08-14T12:04:33;6.13;;;4.70;;
27003;SDS011;14546;47.590;19.022;2022-08-14T12:06:59;7.45;;;5.03;;
27003;SDS011;14546;47.590;19.022;2022-08-14T12:09:31;9.20;;;4.90;;
27003;SDS011;14546;47.590;19.022;2022-08-14T12:11:57;5.43;;;4.07;;
27003;SDS011;14546;47.590;19.022;2022-08-14T12:14:23;4.47;;;4.07;;
27003;SDS011;14546;47.590;19.022;2022-08-14T12:16:59;5.63;;;4.45;;
27003;SDS011;14546;47.590;19.022;2022-08-14T12:19:26;6.85;;;4.18;;
27003;SDS011;14546;47.590;19.022;2022-08-14T12:21:52;4.90;;;3.60;;
27003;SDS011;14546;47.590;19.022;2022-08-14T12:24:18;4.28;;;3.88;;
27003;SDS011;14546;47.590;19.022;2022-08-14T12:26:55;5.63;;;3.83;;
27003;SDS011;14546;47.590;19.022;2022-08-14T12:29:21;5.85;;;3.80;;
27003;SDS011;14546;47.590;19.022;2022-08-14T12:31:56;4.35;;;3.95;;
27003;SDS011;14546;47.590;19.022;2022-08-14T12:34:28;4.72;;;3.65;;
27003;SDS011;14546;47.590;19.022;2022-08-14T12:37:02;8.15;;;4.05;;
27003;SDS011;14546;47.590;19.022;2022-08-14T12:39:30;5.63;;;3.80;;
27003;SDS011;14546;47.590;19.022;2022-08-14T12:41:58;6.57;;;3.70;;
27003;SDS011;14546;47.590;19.022;2022-08-14T12:44:37;5.32;;;3.80;;
27003;SDS011;14546;47.590;19.022;2022-08-14T12:47:09;5.30;;;3.88;;
27003;SDS011;14546;47.590;19.022;2022-08-14T12:52:31;4.00;;;3.60;;
27003;SDS011;14546;47.590;19.022;2022-08-14T12:55:02;4.43;;;4.03;;
27003;SDS011;14546;47.590;19.022;2022-08-14T12:57:50;4.07;;;3.75;;
27003;SDS011;14546;47.590;19.022;2022-08-14T13:00:19;4.63;;;3.40;;
27003;SDS011;14546;47.590;19.022;2022-08-14T13:02:50;5.18;;;4.00;;
27003;SDS011;14546;47.590;19.022;2022-08-14T13:05:16;6.00;;;3.65;;
27003;SDS011;14546;47.590;19.022;2022-08-14T13:07:43;7.10;;;3.30;;
27003;SDS011;14546;47.590;19.022;2022-08-14T13:10:09;5.28;;;3.90;;
27003;SDS011;14546;47.590;19.022;2022-08-14T13:12:38;7.35;;;4.20;;
27003;SDS011;14546;47.590;19.022;2022-08-14T13:15:06;7.07;;;3.97;;
27003;SDS011;14546;47.590;19.022;2022-08-14T13:17:35;4.40;;;3.97;;
27003;SDS011;14546;47.590;19.022;2022-08-14T13:20:04;5.45;;;4.45;;
27003;SDS011;14546;47.590;19.022;2022-08-14T13:22:31;7.20;;;4.25;;
27003;SDS011;14546;47.590;19.022;2022-08-14T13:24:58;6.05;;;4.38;;
27003;SDS011;14546;47.590;19.022;2022-08-14T13:27:24;4.45;;;4.05;;
27003;SDS011;14546;47.590;19.022;2022-08-14T13:29:51;5.90;;;3.80;;
27003;SDS011;14546;47.590;19.022;2022-08-14T13:32:18;4.97;;;3.88;;
27003;SDS011;14546;47.590;19.022;2022-08-14T13:34:46;4.13;;;3.78;;
27003;SDS011;14546;47.590;19.022;2022-08-14T13:37:16;6.57;;;3.85;;
27003;SDS011;14546;47.590;19.022;2022-08-14T13:39:46;4.00;;;3.60;;
27003;SDS011;14546;47.590;19.022;2022-08-14T13:42:13;4.95;;;3.70;;
27003;SDS011;14546;47.590;19.022;2022-08-14T13:44:40;6.43;;;4.35;;
27003;SDS011;14546;47.590;19.022;2022-08-14T13:47:06;5.50;;;4.03;;
27003;SDS011;14546;47.590;19.022;2022-08-14T13:49:32;4.95;;;4.03;;
27003;SDS011;14546;47.590;19.022;2022-08-14T13:51:59;4.38;;;3.92;;
27003;SDS011;14546;47.590;19.022;2022-08-14T13:54:28;5.85;;;3.90;;
27003;SDS011;14546;47.590;19.022;2022-08-14T13:56:57;6.57;;;4.03;;
27003;SDS011;14546;47.590;19.022;2022-08-14T13:59:24;8.57;;;3.42;;
27003;SDS011;14546;47.590;19.022;2022-08-14T14:01:54;6.30;;;3.88;;
27003;SDS011;14546;47.590;19.022;2022-08-14T14:04:20;7.55;;;3.83;;
27003;SDS011;14546;47.590;19.022;2022-08-14T14:06:48;4.00;;;3.45;;
27003;SDS011;14546;47.590;19.022;2022-08-14T14:09:15;5.97;;;3.80;;
27003;SDS011;14546;47.590;19.022;2022-08-14T14:11:46;6.72;;;3.80;;
27003;SDS011;14546;47.590;19.022;2022-08-14T14:14:12;3.42;;;3.13;;
27003;SDS011;14546;47.590;19.022;2022-08-14T14:16:38;3.60;;;3.28;;
27003;SDS011;14546;47.590;19.022;2022-08-14T14:19:05;4.45;;;3.40;;
27003;SDS011;14546;47.590;19.022;2022-08-14T14:21:32;3.92;;;3.63;;
27003;SDS011;14546;47.590;19.022;2022-08-14T14:23:59;3.63;;;3.33;;
27003;SDS011;14546;47.590;19.022;2022-08-14T14:26:25;5.40;;;3.35;;
27003;SDS011;14546;47.590;19.022;2022-08-14T14:28:55;3.40;;;3.10;;
27003;SDS011;14546;47.590;19.022;2022-08-14T14:31:22;3.25;;;2.95;;
27003;SDS011;14546;47.590;19.022;2022-08-14T14:33:50;5.00;;;3.78;;
27003;SDS011;14546;47.590;19.022;2022-08-14T14:36:17;5.75;;;3.63;;
27003;SDS011;14546;47.590;19.022;2022-08-14T14:38:44;4.10;;;3.70;;
27003;SDS011;14546;47.590;19.022;2022-08-14T14:41:12;7.03;;;3.58;;
27003;SDS011;14546;47.590;19.022;2022-08-14T14:43:41;3.72;;;3.30;;
27003;SDS011;14546;47.590;19.022;2022-08-14T14:46:08;4.18;;;3.50;;
27003;SDS011;14546;47.590;19.022;2022-08-14T14:48:38;7.10;;;3.83;;
27003;SDS011;14546;47.590;19.022;2022-08-14T14:51:08;4.63;;;3.58;;
27003;SDS011;14546;47.590;19.022;2022-08-14T14:53:35;3.92;;;3.50;;
27003;SDS011;14546;47.590;19.022;2022-08-14T14:56:02;4.07;;;3.67;;
27003;SDS011;14546;47.590;19.022;2022-08-14T14:58:28;5.70;;;3.78;;
27003;SDS011;14546;47.590;19.022;2022-08-14T15:00:56;4.15;;;3.75;;
27003;SDS011;14546;47.590;19.022;2022-08-14T15:03:25;4.18;;;3.78;;